Time;durP1;ratioP1;P1;durP2;ratioP2;P2;SDS_P1;SDS_P2;PMS_P1;PMS_P2;Temp;Humidity;BMP_temperature;BMP_pressure;BME280_temperature;BME280_humidity;BME280_pressure;Samples;Min_cycle;Max_cycle;Signal;HPM_P1;HPM_P2
2022/03/07 00:01:27;;;;;;;12.80;11.50;;;;;;;;;;5010552;28;20030;-83
2022/03/07 00:03:54;;;;;;;15.45;13.73;;;;;;;;;;4993586;28;20033;-83
2022/03/07 00:06:22;;;;;;;13.52;12.10;;;;;;;;;;5010659;28;20038;-87
2022/03/07 00:08:49;;;;;;;14.07;12.60;;;;;;;;;;4995014;28;20125;-87
2022/03/07 00:11:17;;;;;;;12.82;11.52;;;;;;;;;;4995036;28;20030;-88
2022/03/07 00:13:44;;;;;;;13.27;11.90;;;;;;;;;;5011535;28;20034;-87
2022/03/07 00:16:11;;;;;;;12.35;11.07;;;;;;;;;;4994960;28;20033;-87
2022/03/07 00:18:38;;;;;;;13.73;12.00;;;;;;;;;;5011216;28;20073;-86
2022/03/07 00:21:07;;;;;;;14.13;11.18;;;;;;;;;;4978731;28;20129;-87
2022/03/07 00:23:34;;;;;;;13.07;10.63;;;;;;;;;;5011057;28;20064;-87
2022/03/07 00:25:59;;;;;;;12.02;10.65;;;;;;;;;;4994698;28;20038;-88
2022/03/07 00:28:27;;;;;;;13.30;11.30;;;;;;;;;;4994834;28;20049;-88
2022/03/07 00:30:52;;;;;;;12.77;11.32;;;;;;;;;;5011328;28;20038;-87
2022/03/07 00:33:19;;;;;;;12.40;10.52;;;;;;;;;;5010941;28;20040;-86
2022/03/07 00:35:44;;;;;;;11.18;9.70;;;;;;;;;;4994657;28;20034;-86
2022/03/07 00:38:13;;;;;;;11.63;10.18;;;;;;;;;;4978257;28;20060;-87
2022/03/07 00:40:41;;;;;;;11.65;10.00;;;;;;;;;;4978429;28;20056;-87
2022/03/07 00:43:08;;;;;;;13.05;9.30;;;;;;;;;;5011368;28;20038;-86
2022/03/07 00:45:35;;;;;;;11.80;9.93;;;;;;;;;;4994217;28;20037;-87
2022/03/07 00:48:03;;;;;;;11.20;9.07;;;;;;;;;;4994869;28;20038;-87
2022/03/07 00:50:30;;;;;;;10.65;9.18;;;;;;;;;;4995423;28;20539;-87
2022/03/07 00:52:57;;;;;;;10.18;9.02;;;;;;;;;;4981958;28;20030;-87
2022/03/07 00:55:22;;;;;;;10.55;8.65;;;;;;;;;;4981910;28;20034;-87
2022/03/07 00:57:49;;;;;;;9.90;8.90;;;;;;;;;;4982357;28;20176;-87
2022/03/07 01:00:17;;;;;;;11.63;8.77;;;;;;;;;;5026027;28;20390;-87
2022/03/07 01:02:42;;;;;;;11.25;8.27;;;;;;;;;;4994782;28;20042;-86
2022/03/07 01:05:09;;;;;;;8.98;7.68;;;;;;;;;;4994860;28;20034;-87
2022/03/07 01:07:37;;;;;;;9.55;7.80;;;;;;;;;;4994501;28;20121;-87
2022/03/07 01:10:03;;;;;;;9.15;7.35;;;;;;;;;;5010640;28;20034;-87
2022/03/07 01:12:29;;;;;;;10.30;8.15;;;;;;;;;;4962257;28;20072;-86
2022/03/07 01:14:56;;;;;;;8.43;7.32;;;;;;;;;;4994600;28;20041;-87
2022/03/07 01:17:23;;;;;;;8.80;7.75;;;;;;;;;;5027105;28;20035;-87
2022/03/07 01:19:49;;;;;;;8.80;7.30;;;;;;;;;;4994405;28;20041;-87
2022/03/07 01:22:14;;;;;;;8.10;6.22;;;;;;;;;;4994255;28;20124;-86
2022/03/07 01:24:41;;;;;;;8.10;7.00;;;;;;;;;;5026836;28;20416;-87
2022/03/07 01:27:06;;;;;;;8.25;6.88;;;;;;;;;;4977600;28;20125;-87
2022/03/07 01:29:32;;;;;;;8.32;6.85;;;;;;;;;;4994053;28;20101;-87
2022/03/07 01:31:57;;;;;;;10.07;6.93;;;;;;;;;;4994093;28;20039;-87
2022/03/07 01:34:25;;;;;;;7.82;6.13;;;;;;;;;;4996981;28;20041;-87
2022/03/07 01:36:50;;;;;;;7.60;6.30;;;;;;;;;;4997079;28;20077;-86
2022/03/07 01:39:17;;;;;;;6.88;5.70;;;;;;;;;;4997409;28;20041;-87
2022/03/07 01:41:43;;;;;;;8.63;6.45;;;;;;;;;;4997230;28;20064;-86
2022/03/07 01:44:19;;;;;;;7.88;6.05;;;;;;;;;;4996827;28;20069;-87
2022/03/07 01:46:46;;;;;;;6.82;5.32;;;;;;;;;;4981001;28;20034;-85
2022/03/07 01:49:12;;;;;;;6.70;5.88;;;;;;;;;;4980587;28;20053;-86
2022/03/07 01:51:38;;;;;;;7.05;5.68;;;;;;;;;;4964573;28;20480;-87
2022/03/07 01:54:05;;;;;;;6.07;5.25;;;;;;;;;;4980829;28;20515;-87
2022/03/07 01:56:31;;;;;;;7.50;5.60;;;;;;;;;;4977431;28;20030;-87
2022/03/07 01:58:57;;;;;;;6.95;5.78;;;;;;;;;;4981627;28;20041;-86
2022/03/07 02:01:23;;;;;;;6.60;5.25;;;;;;;;;;4961435;28;20027;-87
2022/03/07 02:03:51;;;;;;;6.15;4.78;;;;;;;;;;4960357;28;20030;-87
2022/03/07 02:06:16;;;;;;;6.57;5.18;;;;;;;;;;4977177;28;20042;-86
2022/03/07 02:08:43;;;;;;;6.53;4.80;;;;;;;;;;4961049;28;20137;-86
2022/03/07 02:11:08;;;;;;;6.32;5.00;;;;;;;;;;4961478;28;20037;-87
2022/03/07 02:13:35;;;;;;;6.00;4.38;;;;;;;;;;4977251;28;20057;-88
2022/03/07 02:16:02;;;;;;;6.85;5.50;;;;;;;;;;4961215;28;20041;-87
2022/03/07 02:18:31;;;;;;;6.38;4.75;;;;;;;;;;4960805;28;20034;-87
2022/03/07 02:21:15;;;;;;;5.00;4.15;;;;;;;;;;4944833;28;20035;-87
2022/03/07 02:23:43;;;;;;;5.97;3.70;;;;;;;;;;4995048;28;20027;-87
2022/03/07 02:26:17;;;;;;;6.35;4.25;;;;;;;;;;4977007;28;20452;-86
2022/03/07 02:28:44;;;;;;;5.13;4.00;;;;;;;;;;4960814;28;20042;-87
2022/03/07 02:31:11;;;;;;;5.90;4.05;;;;;;;;;;4960746;28;20037;-87
2022/03/07 02:33:37;;;;;;;5.38;4.47;;;;;;;;;;4960364;28;20045;-87
2022/03/07 02:36:03;;;;;;;5.00;3.90;;;;;;;;;;4944530;28;20045;-87
2022/03/07 02:38:30;;;;;;;4.95;3.75;;;;;;;;;;4960689;28;20046;-87
2022/03/07 02:40:56;;;;;;;4.90;3.47;;;;;;;;;;4960793;28;20034;-86
2022/03/07 02:43:22;;;;;;;4.78;3.97;;;;;;;;;;4947343;28;20085;-87
2022/03/07 02:45:48;;;;;;;5.18;3.72;;;;;;;;;;4996012;28;20034;-87
2022/03/07 02:48:15;;;;;;;4.22;3.17;;;;;;;;;;4979586;28;20037;-87
2022/03/07 02:50:41;;;;;;;5.65;3.85;;;;;;;;;;4995438;28;20038;-86
2022/03/07 02:53:07;;;;;;;5.05;3.40;;;;;;;;;;4979928;28;20038;-86
2022/03/07 02:55:35;;;;;;;4.15;3.28;;;;;;;;;;4979937;28;20475;-86
2022/03/07 02:58:04;;;;;;;4.55;3.63;;;;;;;;;;4979822;28;20396;-86
2022/03/07 03:00:30;;;;;;;4.43;3.20;;;;;;;;;;4976460;28;20066;-87
2022/03/07 03:02:56;;;;;;;5.22;3.90;;;;;;;;;;4992479;28;20116;-85
2022/03/07 03:05:22;;;;;;;5.45;3.67;;;;;;;;;;4976121;28;20040;-87
2022/03/07 03:07:51;;;;;;;4.53;2.90;;;;;;;;;;4992443;28;20038;-87
2022/03/07 03:10:17;;;;;;;4.20;3.35;;;;;;;;;;4992652;28;20069;-86
2022/03/07 03:12:43;;;;;;;5.18;3.60;;;;;;;;;;4991665;28;20496;-86
2022/03/07 03:15:09;;;;;;;4.65;3.00;;;;;;;;;;4979124;28;20037;-87
2022/03/07 03:17:38;;;;;;;4.28;2.97;;;;;;;;;;4995403;28;20416;-87
2022/03/07 03:20:04;;;;;;;4.15;2.80;;;;;;;;;;4979348;28;20489;-86
2022/03/07 03:22:34;;;;;;;4.05;2.80;;;;;;;;;;4995149;28;20030;-87
2022/03/07 03:25:00;;;;;;;4.38;2.97;;;;;;;;;;4995512;28;20037;-86
2022/03/07 03:27:26;;;;;;;3.70;2.65;;;;;;;;;;4995460;28;20531;-86
2022/03/07 03:29:52;;;;;;;3.95;2.72;;;;;;;;;;4995548;28;20034;-86
2022/03/07 03:32:17;;;;;;;4.55;3.03;;;;;;;;;;4994921;28;20097;-86
2022/03/07 03:34:46;;;;;;;3.17;2.63;;;;;;;;;;4995000;28;20408;-87
2022/03/07 03:37:11;;;;;;;3.70;3.00;;;;;;;;;;4962869;28;20038;-87
2022/03/07 03:39:37;;;;;;;4.28;3.20;;;;;;;;;;4979252;28;20104;-87
2022/03/07 03:42:03;;;;;;;3.83;2.60;;;;;;;;;;4962897;28;20068;-86
2022/03/07 03:44:31;;;;;;;2.83;2.17;;;;;;;;;;4978305;28;20034;-87
2022/03/07 03:46:58;;;;;;;4.00;2.20;;;;;;;;;;4995419;28;20048;-87
2022/03/07 03:49:23;;;;;;;3.67;2.72;;;;;;;;;;4978842;28;20038;-87
2022/03/07 03:51:50;;;;;;;3.97;2.53;;;;;;;;;;4978947;28;20420;-86
2022/03/07 03:54:16;;;;;;;4.70;2.75;;;;;;;;;;4978801;28;20034;-86
2022/03/07 03:56:45;;;;;;;3.58;2.33;;;;;;;;;;4979099;28;20036;-87
2022/03/07 03:59:11;;;;;;;4.32;2.63;;;;;;;;;;4978794;28;20088;-86
2022/03/07 04:01:37;;;;;;;3.70;2.40;;;;;;;;;;4978687;28;20034;-87
2022/03/07 04:04:02;;;;;;;3.38;2.28;;;;;;;;;;4978090;28;20038;-86
2022/03/07 04:06:28;;;;;;;4.68;2.30;;;;;;;;;;5011085;28;20492;-86
2022/03/07 04:09:01;;;;;;;4.15;2.33;;;;;;;;;;4994874;28;20042;-86
2022/03/07 04:11:28;;;;;;;3.53;2.25;;;;;;;;;;5010765;28;20049;-86
2022/03/07 04:13:53;;;;;;;3.22;2.17;;;;;;;;;;4978383;28;20037;-86
2022/03/07 04:16:19;;;;;;;4.22;2.50;;;;;;;;;;4978591;28;20033;-86
2022/03/07 04:18:44;;;;;;;3.88;2.58;;;;;;;;;;5010604;28;20108;-86
2022/03/07 04:21:11;;;;;;;3.97;2.50;;;;;;;;;;4978842;28;20049;-86
2022/03/07 04:23:37;;;;;;;3.70;2.58;;;;;;;;;;4995051;28;20129;-86
2022/03/07 04:26:03;;;;;;;3.58;2.53;;;;;;;;;;5012552;28;20083;-86
2022/03/07 04:28:30;;;;;;;3.55;2.25;;;;;;;;;;4998461;28;20042;-87
2022/03/07 04:30:56;;;;;;;4.28;2.55;;;;;;;;;;5015178;28;20045;-86
2022/03/07 04:33:24;;;;;;;2.67;1.70;;;;;;;;;;4998143;28;20030;-87
2022/03/07 04:35:49;;;;;;;3.78;2.53;;;;;;;;;;5011299;28;20053;-86
2022/03/07 04:38:15;;;;;;;2.95;2.15;;;;;;;;;;4982182;28;20034;-86
2022/03/07 04:40:40;;;;;;;3.25;2.03;;;;;;;;;;4998604;28;20034;-86
2022/03/07 04:43:09;;;;;;;3.67;2.60;;;;;;;;;;4981859;28;20116;-86
2022/03/07 04:45:35;;;;;;;3.78;2.00;;;;;;;;;;4998164;28;20117;-87
2022/03/07 04:48:04;;;;;;;3.58;2.15;;;;;;;;;;4981807;28;20054;-87
2022/03/07 04:50:30;;;;;;;3.70;2.17;;;;;;;;;;4998476;28;20064;-87
2022/03/07 04:52:58;;;;;;;3.22;1.92;;;;;;;;;;4998368;28;20129;-86
2022/03/07 04:55:25;;;;;;;3.63;2.08;;;;;;;;;;4997885;28;20045;-86
2022/03/07 04:57:54;;;;;;;2.90;1.75;;;;;;;;;;4998046;28;20037;-86
2022/03/07 05:00:21;;;;;;;3.97;2.08;;;;;;;;;;4994564;28;20034;-87
2022/03/07 05:02:48;;;;;;;3.50;2.25;;;;;;;;;;4978503;28;20035;-87
2022/03/07 05:05:18;;;;;;;3.78;1.98;;;;;;;;;;4978632;28;20128;-86
2022/03/07 05:07:43;;;;;;;3.75;2.22;;;;;;;;;;4978267;28;20124;-87
2022/03/07 05:10:09;;;;;;;2.80;1.80;;;;;;;;;;4978557;28;20565;-86
2022/03/07 05:12:35;;;;;;;3.00;1.65;;;;;;;;;;4978492;28;20088;-87
2022/03/07 05:15:02;;;;;;;2.70;1.85;;;;;;;;;;4962228;28;20027;-87
2022/03/07 05:17:30;;;;;;;4.85;2.40;;;;;;;;;;4994221;28;20066;-86
2022/03/07 05:19:57;;;;;;;2.50;1.98;;;;;;;;;;4961825;28;20034;-86
2022/03/07 05:22:24;;;;;;;2.83;1.65;;;;;;;;;;4962174;28;20041;-86
2022/03/07 05:24:51;;;;;;;4.00;1.70;;;;;;;;;;4962116;28;20042;-86
2022/03/07 05:27:17;;;;;;;2.15;1.60;;;;;;;;;;4994364;28;20037;-86
2022/03/07 05:29:46;;;;;;;2.90;1.70;;;;;;;;;;4977890;28;20042;-85
2022/03/07 05:32:12;;;;;;;2.63;1.80;;;;;;;;;;5004376;28;20034;-87
2022/03/07 05:34:41;;;;;;;3.42;2.03;;;;;;;;;;4981146;28;20040;-86
2022/03/07 05:37:06;;;;;;;3.28;1.60;;;;;;;;;;4980812;28;20316;-86
2022/03/07 05:39:32;;;;;;;2.72;1.85;;;;;;;;;;4997495;28;20073;-86
2022/03/07 05:41:57;;;;;;;3.40;1.92;;;;;;;;;;4996956;28;20034;-86
2022/03/07 05:44:24;;;;;;;3.10;1.63;;;;;;;;;;4989030;28;20060;-87
2022/03/07 05:46:49;;;;;;;4.30;1.50;;;;;;;;;;4996677;28;20107;-86
2022/03/07 05:49:17;;;;;;;3.25;2.33;;;;;;;;;;4997074;28;20054;-86
2022/03/07 05:51:44;;;;;;;3.63;2.15;;;;;;;;;;4996918;28;20125;-86
2022/03/07 05:54:11;;;;;;;2.65;1.60;;;;;;;;;;4996880;28;20042;-86
2022/03/07 05:56:37;;;;;;;3.30;1.88;;;;;;;;;;4980868;28;20026;-86
2022/03/07 05:59:03;;;;;;;4.18;2.30;;;;;;;;;;4977292;28;20496;-87
2022/03/07 06:01:29;;;;;;;3.65;2.15;;;;;;;;;;4974915;28;20069;-88
2022/03/07 06:03:57;;;;;;;2.17;1.35;;;;;;;;;;5002803;28;20038;-83
2022/03/07 06:06:23;;;;;;;3.97;1.70;;;;;;;;;;4995201;28;20034;-83
2022/03/07 06:08:48;;;;;;;5.50;2.63;;;;;;;;;;4996062;28;20053;-84
2022/03/07 06:11:14;;;;;;;3.30;2.10;;;;;;;;;;4995300;28;20029;-82
2022/03/07 06:13:39;;;;;;;3.40;1.90;;;;;;;;;;4995558;28;20053;-82
2022/03/07 06:16:06;;;;;;;3.78;1.60;;;;;;;;;;4995677;28;20095;-81
2022/03/07 06:18:31;;;;;;;3.28;2.10;;;;;;;;;;4979831;28;20044;-82
2022/03/07 06:20:57;;;;;;;2.83;1.55;;;;;;;;;;4995650;28;20039;-81
2022/03/07 06:23:23;;;;;;;2.83;1.60;;;;;;;;;;4979300;28;20522;-83
2022/03/07 06:25:49;;;;;;;2.30;1.40;;;;;;;;;;4976048;28;20133;-82
2022/03/07 06:28:14;;;;;;;2.70;1.35;;;;;;;;;;4992737;28;20117;-83
2022/03/07 06:30:40;;;;;;;3.92;1.75;;;;;;;;;;4989498;28;20401;-80
2022/03/07 06:33:05;;;;;;;10.80;2.22;;;;;;;;;;4990017;28;20050;-80
2022/03/07 06:35:31;;;;;;;4.05;1.30;;;;;;;;;;5007115;28;20041;-79
2022/03/07 06:37:56;;;;;;;4.13;1.80;;;;;;;;;;4992149;28;20061;-82
2022/03/07 06:40:22;;;;;;;3.63;1.75;;;;;;;;;;4994335;28;20045;-81
2022/03/07 06:42:48;;;;;;;4.65;1.65;;;;;;;;;;4994275;28;20030;-82
2022/03/07 06:45:16;;;;;;;5.47;2.00;;;;;;;;;;4974971;28;20472;-82
2022/03/07 06:47:43;;;;;;;9.07;1.70;;;;;;;;;;4991422;28;20038;-82
2022/03/07 06:50:09;;;;;;;3.90;1.55;;;;;;;;;;4982222;28;20034;-81
2022/03/07 06:52:34;;;;;;;9.98;2.20;;;;;;;;;;4974824;28;20501;-81
2022/03/07 06:55:00;;;;;;;6.55;1.65;;;;;;;;;;4993536;28;20451;-81
2022/03/07 06:57:25;;;;;;;6.88;1.80;;;;;;;;;;4992965;28;20042;-81
2022/03/07 06:59:51;;;;;;;5.05;1.83;;;;;;;;;;5003425;28;20034;-80
2022/03/07 07:02:17;;;;;;;16.55;2.05;;;;;;;;;;5001648;28;20413;-81
2022/03/07 07:04:42;;;;;;;9.23;2.28;;;;;;;;;;4988549;28;20045;-81
2022/03/07 07:07:07;;;;;;;7.60;2.22;;;;;;;;;;4998031;28;20045;-81
2022/03/07 07:09:33;;;;;;;7.07;2.05;;;;;;;;;;4991263;28;20080;-81
2022/03/07 07:11:59;;;;;;;5.40;1.50;;;;;;;;;;5000794;28;20037;-80
2022/03/07 07:14:24;;;;;;;7.65;2.00;;;;;;;;;;4994767;28;20034;-80
2022/03/07 07:16:49;;;;;;;5.90;1.60;;;;;;;;;;4991723;28;20049;-81
2022/03/07 07:19:15;;;;;;;5.18;1.95;;;;;;;;;;4992825;28;20077;-80
2022/03/07 07:21:40;;;;;;;8.02;1.63;;;;;;;;;;4991141;28;20034;-81
2022/03/07 07:24:07;;;;;;;3.88;1.58;;;;;;;;;;4991423;28;20038;-81
2022/03/07 07:26:32;;;;;;;7.40;1.80;;;;;;;;;;4991224;28;20041;-81
2022/03/07 07:28:57;;;;;;;8.93;1.88;;;;;;;;;;5002892;28;20113;-81
2022/03/07 07:31:23;;;;;;;6.72;1.90;;;;;;;;;;4978200;28;20123;-80
2022/03/07 07:33:49;;;;;;;8.68;2.15;;;;;;;;;;4993874;28;20030;-80
2022/03/07 07:36:14;;;;;;;6.65;1.88;;;;;;;;;;4994556;28;20080;-81
2022/03/07 07:38:40;;;;;;;6.32;2.00;;;;;;;;;;5002234;28;20034;-81
2022/03/07 07:41:05;;;;;;;9.30;2.08;;;;;;;;;;4990811;28;20054;-81
2022/03/07 07:43:36;;;;;;;6.95;1.70;;;;;;;;;;4994534;28;20415;-82
2022/03/07 07:46:02;;;;;;;8.32;1.55;;;;;;;;;;4996690;28;20038;-80
2022/03/07 07:48:27;;;;;;;9.35;1.65;;;;;;;;;;4998375;28;20037;-81
2022/03/07 07:50:53;;;;;;;8.07;2.03;;;;;;;;;;4990902;28;20045;-81
2022/03/07 07:53:18;;;;;;;8.05;1.60;;;;;;;;;;5006992;28;20023;-81
2022/03/07 07:55:44;;;;;;;4.53;1.48;;;;;;;;;;4974549;28;20050;-81
2022/03/07 07:58:09;;;;;;;7.45;1.70;;;;;;;;;;4974538;28;20419;-80
2022/03/07 08:00:35;;;;;;;9.15;1.83;;;;;;;;;;5012814;28;20129;-80
2022/03/07 08:03:00;;;;;;;7.70;1.67;;;;;;;;;;5014063;28;20040;-80
2022/03/07 08:05:26;;;;;;;9.25;1.52;;;;;;;;;;5014415;28;20088;-80
2022/03/07 08:07:51;;;;;;;7.10;1.45;;;;;;;;;;4997641;28;20101;-82
2022/03/07 08:10:18;;;;;;;7.93;1.48;;;;;;;;;;5014072;28;20064;-83
2022/03/07 08:12:43;;;;;;;8.82;1.15;;;;;;;;;;4998989;28;20074;-83
2022/03/07 08:15:11;;;;;;;6.47;1.20;;;;;;;;;;4978547;28;20039;-82
2022/03/07 08:17:49;;;;;;;5.00;1.23;;;;;;;;;;5000310;28;20053;-84
2022/03/07 08:20:23;;;;;;;8.55;1.27;;;;;;;;;;5012078;28;20034;-83
2022/03/07 08:22:48;;;;;;;6.60;1.33;;;;;;;;;;4993802;28;20061;-82
2022/03/07 08:25:14;;;;;;;7.93;1.23;;;;;;;;;;4998894;28;20105;-82
2022/03/07 08:27:40;;;;;;;4.18;1.40;;;;;;;;;;5011763;28;20570;-82
2022/03/07 08:30:07;;;;;;;7.22;1.88;;;;;;;;;;4994163;28;20034;-82
2022/03/07 08:32:33;;;;;;;3.65;1.35;;;;;;;;;;4978171;28;20544;-82
2022/03/07 08:34:59;;;;;;;4.80;1.05;;;;;;;;;;4983828;28;20030;-81
2022/03/07 08:37:24;;;;;;;3.60;1.02;;;;;;;;;;4991852;28;20540;-81
2022/03/07 08:39:50;;;;;;;4.00;1.10;;;;;;;;;;4992057;28;20046;-81
2022/03/07 08:42:15;;;;;;;5.72;1.80;;;;;;;;;;4994316;28;20049;-80
2022/03/07 08:44:41;;;;;;;9.48;2.80;;;;;;;;;;5013414;28;20034;-80
2022/03/07 08:47:06;;;;;;;6.97;2.67;;;;;;;;;;4996497;28;20030;-80
2022/03/07 08:49:32;;;;;;;6.43;2.78;;;;;;;;;;4996862;28;20044;-80
2022/03/07 08:51:57;;;;;;;7.28;3.03;;;;;;;;;;4994283;28;20117;-80
2022/03/07 08:54:22;;;;;;;5.97;2.85;;;;;;;;;;5010978;28;20038;-80
2022/03/07 08:56:48;;;;;;;21.52;3.83;;;;;;;;;;5012632;28;20034;-79
2022/03/07 08:59:13;;;;;;;7.75;2.80;;;;;;;;;;5009381;28;20038;-80
2022/03/07 09:01:39;;;;;;;8.57;3.38;;;;;;;;;;5009327;28;20100;-79
2022/03/07 09:04:04;;;;;;;8.43;2.75;;;;;;;;;;4977109;28;20053;-79
2022/03/07 09:06:30;;;;;;;10.40;2.95;;;;;;;;;;4977387;28;20525;-80
2022/03/07 09:08:55;;;;;;;6.28;2.72;;;;;;;;;;4976862;28;20061;-79
2022/03/07 09:11:21;;;;;;;6.43;2.20;;;;;;;;;;4981386;28;20022;-79
2022/03/07 09:13:46;;;;;;;8.38;2.70;;;;;;;;;;4982168;28;20404;-79
2022/03/07 09:16:14;;;;;;;5.75;2.28;;;;;;;;;;4977000;28;20512;-79
2022/03/07 09:18:39;;;;;;;6.22;2.13;;;;;;;;;;4993831;28;20489;-79
2022/03/07 09:21:05;;;;;;;6.00;2.00;;;;;;;;;;4977071;28;20121;-79
2022/03/07 09:23:37;;;;;;;8.23;2.42;;;;;;;;;;5009190;28;20038;-79
2022/03/07 09:26:03;;;;;;;6.57;2.25;;;;;;;;;;4993974;28;20149;-79
2022/03/07 09:28:28;;;;;;;3.38;1.50;;;;;;;;;;4993425;28;20074;-81
2022/03/07 09:30:53;;;;;;;7.75;1.63;;;;;;;;;;4977173;28;20408;-81
2022/03/07 09:33:19;;;;;;;7.75;2.08;;;;;;;;;;4976876;28;20034;-81
2022/03/07 09:35:44;;;;;;;3.80;1.55;;;;;;;;;;4992318;28;20512;-81
2022/03/07 09:38:10;;;;;;;5.25;1.60;;;;;;;;;;4976582;28;20066;-81
2022/03/07 09:40:35;;;;;;;7.13;1.75;;;;;;;;;;4976820;28;20120;-80
2022/03/07 09:43:01;;;;;;;5.90;1.77;;;;;;;;;;4963014;28;20033;-81
2022/03/07 09:45:26;;;;;;;4.65;1.40;;;;;;;;;;4989311;28;20257;-81
2022/03/07 09:47:52;;;;;;;4.07;1.45;;;;;;;;;;4995640;28;20041;-81
2022/03/07 09:50:18;;;;;;;4.43;1.30;;;;;;;;;;4991764;28;20042;-80
2022/03/07 09:52:44;;;;;;;4.28;1.42;;;;;;;;;;4976348;28;20034;-80
2022/03/07 09:55:13;;;;;;;7.45;1.67;;;;;;;;;;4991030;28;20133;-82
2022/03/07 09:57:39;;;;;;;9.15;1.30;;;;;;;;;;4988667;28;20038;-81
2022/03/07 10:00:05;;;;;;;4.70;1.27;;;;;;;;;;5005716;28;20802;-80
2022/03/07 10:02:30;;;;;;;3.42;1.30;;;;;;;;;;4994109;28;20045;-80
2022/03/07 10:05:02;;;;;;;5.93;1.42;;;;;;;;;;5007644;28;20497;-81
2022/03/07 10:07:27;;;;;;;5.00;1.35;;;;;;;;;;4993664;28;20038;-80
2022/03/07 10:10:06;;;;;;;5.05;1.38;;;;;;;;;;4995699;28;20050;-80
2022/03/07 10:12:32;;;;;;;5.15;1.23;;;;;;;;;;4992665;28;20081;-80
2022/03/07 10:14:57;;;;;;;3.78;1.40;;;;;;;;;;4992521;28;20038;-80
2022/03/07 10:17:27;;;;;;;4.32;1.27;;;;;;;;;;4975966;28;20065;-80
2022/03/07 10:19:54;;;;;;;5.00;1.40;;;;;;;;;;4995030;28;20037;-79
2022/03/07 10:22:29;;;;;;;5.70;1.55;;;;;;;;;;5028278;28;20070;-79
2022/03/07 10:24:59;;;;;;;4.28;1.48;;;;;;;;;;5026353;28;20381;-81
2022/03/07 10:27:28;;;;;;;5.70;2.17;;;;;;;;;;5028092;28;20096;-80
2022/03/07 10:29:54;;;;;;;6.47;1.45;;;;;;;;;;5028089;28;20061;-80
2022/03/07 10:32:20;;;;;;;6.15;1.40;;;;;;;;;;5028556;28;20404;-79
2022/03/07 10:34:45;;;;;;;9.65;1.20;;;;;;;;;;5027579;28;20397;-80
2022/03/07 10:37:12;;;;;;;6.75;1.23;;;;;;;;;;4993470;28;20462;-79
2022/03/07 10:39:37;;;;;;;4.95;1.30;;;;;;;;;;5011445;28;20038;-79
2022/03/07 10:42:03;;;;;;;8.20;1.70;;;;;;;;;;5023217;28;20100;-78
2022/03/07 10:44:34;;;;;;;4.20;0.95;;;;;;;;;;4994609;28;20104;-79
2022/03/07 10:47:10;;;;;;;12.20;1.58;;;;;;;;;;4979053;28;20034;-79
2022/03/07 10:49:41;;;;;;;12.00;2.03;;;;;;;;;;5011411;28;20050;-79
2022/03/07 10:52:06;;;;;;;7.28;2.38;;;;;;;;;;4979261;28;20528;-79
2022/03/07 10:54:35;;;;;;;4.00;1.30;;;;;;;;;;4984223;28;20109;-79
2022/03/07 10:57:02;;;;;;;6.72;1.10;;;;;;;;;;4982669;28;20034;-79
2022/03/07 10:59:29;;;;;;;4.80;1.20;;;;;;;;;;4994757;28;20061;-79
2022/03/07 11:02:01;;;;;;;3.85;0.90;;;;;;;;;;4994746;28;20042;-79
2022/03/07 11:04:27;;;;;;;6.25;1.45;;;;;;;;;;5010986;28;20049;-80
2022/03/07 11:06:52;;;;;;;6.63;1.42;;;;;;;;;;5010798;28;20034;-79
2022/03/07 11:09:18;;;;;;;5.68;1.23;;;;;;;;;;4994872;28;20500;-79
2022/03/07 11:11:44;;;;;;;7.40;1.20;;;;;;;;;;5006370;28;20040;-79
2022/03/07 11:14:09;;;;;;;4.82;1.10;;;;;;;;;;5010875;28;20032;-79
2022/03/07 11:16:34;;;;;;;4.80;1.05;;;;;;;;;;4978319;28;20558;-79
2022/03/07 11:19:01;;;;;;;4.30;1.20;;;;;;;;;;4994617;28;20120;-79
2022/03/07 11:21:27;;;;;;;7.65;2.05;;;;;;;;;;4978716;28;20061;-79
2022/03/07 11:23:53;;;;;;;9.25;1.38;;;;;;;;;;4994844;28;20514;-79
2022/03/07 11:26:20;;;;;;;4.05;1.00;;;;;;;;;;4994748;28;20042;-79
2022/03/07 11:28:47;;;;;;;5.13;1.00;;;;;;;;;;4995247;28;20087;-79
2022/03/07 11:31:22;;;;;;;12.15;1.35;;;;;;;;;;4976558;28;20030;-79
2022/03/07 11:33:49;;;;;;;4.75;1.00;;;;;;;;;;4976650;28;20034;-79
2022/03/07 11:36:16;;;;;;;2.50;0.73;;;;;;;;;;4993570;28;20137;-79
2022/03/07 11:38:58;;;;;;;4.95;0.90;;;;;;;;;;4978320;28;20048;-79
2022/03/07 11:41:28;;;;;;;4.00;1.13;;;;;;;;;;4960207;28;20034;-79
2022/03/07 11:43:56;;;;;;;2.72;0.70;;;;;;;;;;4978332;28;20489;-80
2022/03/07 11:46:27;;;;;;;5.03;1.38;;;;;;;;;;4991886;28;20070;-80
2022/03/07 11:48:53;;;;;;;4.50;0.85;;;;;;;;;;4982319;28;20038;-80
2022/03/07 11:51:25;;;;;;;3.80;0.68;;;;;;;;;;4979963;28;20040;-80
2022/03/07 11:53:52;;;;;;;2.47;0.70;;;;;;;;;;4977778;28;20042;-80
2022/03/07 11:56:29;;;;;;;2.30;0.95;;;;;;;;;;5010424;28;20046;-80
2022/03/07 11:58:55;;;;;;;5.95;0.80;;;;;;;;;;5010923;28;20026;-80
2022/03/07 12:01:22;;;;;;;6.57;0.98;;;;;;;;;;4977778;28;20100;-80
2022/03/07 12:03:47;;;;;;;2.63;0.95;;;;;;;;;;4977447;28;20451;-79
2022/03/07 12:06:14;;;;;;;2.85;0.60;;;;;;;;;;4993875;28;20030;-80
2022/03/07 12:08:49;;;;;;;1.50;0.57;;;;;;;;;;4994096;28;20049;-79
2022/03/07 12:11:29;;;;;;;1.75;0.60;;;;;;;;;;4990913;28;20046;-80
2022/03/07 12:14:02;;;;;;;2.40;0.60;;;;;;;;;;4975070;28;20149;-80
2022/03/07 12:16:30;;;;;;;4.15;0.70;;;;;;;;;;4975075;28;20042;-79
2022/03/07 12:19:17;;;;;;;8.80;0.98;;;;;;;;;;5009079;28;20460;-79
2022/03/07 12:21:43;;;;;;;5.00;1.23;;;;;;;;;;4977479;28;20030;-80
2022/03/07 12:24:13;;;;;;;3.60;0.73;;;;;;;;;;5010324;28;20497;-80
2022/03/07 12:26:50;;;;;;;5.43;0.70;;;;;;;;;;5026633;28;20037;-80
2022/03/07 12:29:16;;;;;;;2.40;0.60;;;;;;;;;;4977433;28;20041;-81
2022/03/07 12:31:55;;;;;;;2.03;0.90;;;;;;;;;;5010104;28;20030;-81
2022/03/07 12:34:25;;;;;;;3.65;0.80;;;;;;;;;;4993653;28;20045;-81
2022/03/07 12:37:17;;;;;;;2.38;0.70;;;;;;;;;;4993672;28;20581;-79
2022/03/07 12:39:52;;;;;;;4.70;0.57;;;;;;;;;;4997840;28;20095;-80
2022/03/07 12:42:21;;;;;;;3.45;1.08;;;;;;;;;;5010306;28;20042;-80
2022/03/07 12:44:47;;;;;;;4.95;0.65;;;;;;;;;;4977509;28;20034;-82
2022/03/07 12:47:12;;;;;;;1.85;0.70;;;;;;;;;;4995190;28;20033;-78
2022/03/07 12:49:38;;;;;;;2.75;0.70;;;;;;;;;;4997515;28;20052;-78
2022/03/07 12:52:06;;;;;;;2.63;0.65;;;;;;;;;;4997191;28;20049;-81
2022/03/07 12:54:39;;;;;;;1.83;0.52;;;;;;;;;;4997469;28;20129;-82
2022/03/07 12:57:04;;;;;;;2.10;0.60;;;;;;;;;;4997035;28;20036;-79
2022/03/07 12:59:32;;;;;;;3.10;1.02;;;;;;;;;;5004255;28;20129;-79
2022/03/07 13:01:57;;;;;;;2.97;0.70;;;;;;;;;;5013585;28;20117;-80
2022/03/07 13:04:30;;;;;;;2.67;1.17;;;;;;;;;;4996976;28;20473;-79
2022/03/07 13:06:55;;;;;;;;;;;;;;;;;;5013661;28;20076;-79
2022/03/07 13:09:31;;;;;;;2.70;0.75;;;;;;;;;;5013305;28;19917;-79
2022/03/07 13:11:56;;;;;;;2.25;0.98;;;;;;;;;;5006333;28;20038;-79
2022/03/07 13:14:26;;;;;;;2.75;0.70;;;;;;;;;;4996583;28;20113;-79
2022/03/07 13:16:51;;;;;;;2.88;0.80;;;;;;;;;;4996275;28;20446;-79
2022/03/07 13:19:20;;;;;;;3.97;0.70;;;;;;;;;;4980207;28;20084;-79
2022/03/07 13:21:45;;;;;;;3.63;0.90;;;;;;;;;;5012586;28;20044;-79
2022/03/07 13:24:16;;;;;;;2.83;0.80;;;;;;;;;;4963672;28;20037;-79
2022/03/07 13:26:41;;;;;;;2.10;0.70;;;;;;;;;;4980407;28;20439;-80
2022/03/07 13:29:14;;;;;;;3.10;0.68;;;;;;;;;;4996217;28;20049;-80
2022/03/07 13:31:47;;;;;;;1.35;0.60;;;;;;;;;;4981341;28;20959;-80
2022/03/07 13:34:17;;;;;;;3.17;0.70;;;;;;;;;;4964205;28;20026;-80
2022/03/07 13:36:45;;;;;;;1.98;0.60;;;;;;;;;;4995814;28;20046;-80
2022/03/07 13:39:38;;;;;;;4.10;1.08;;;;;;;;;;4995841;28;20530;-80
2022/03/07 13:42:08;;;;;;;6.47;1.70;;;;;;;;;;4996680;28;20413;-80
2022/03/07 13:44:35;;;;;;;6.30;1.00;;;;;;;;;;4995639;28;20030;-80
2022/03/07 13:47:04;;;;;;;5.55;1.33;;;;;;;;;;4978928;28;20042;-80
2022/03/07 13:49:40;;;;;;;4.00;0.90;;;;;;;;;;5011769;28;20041;-80
2022/03/07 13:52:22;;;;;;;3.88;0.95;;;;;;;;;;5012208;28;20045;-80
2022/03/07 13:54:50;;;;;;;5.72;1.23;;;;;;;;;;4965268;28;20037;-80
2022/03/07 13:57:15;;;;;;;3.47;0.80;;;;;;;;;;4979939;28;20030;-79
2022/03/07 13:59:52;;;;;;;4.85;0.85;;;;;;;;;;4979644;28;20045;-80
2022/03/07 14:02:17;;;;;;;3.58;0.70;;;;;;;;;;5012041;28;20042;-79
2022/03/07 14:04:59;;;;;;;4.18;1.00;;;;;;;;;;5012074;28;20099;-79
2022/03/07 14:07:27;;;;;;;3.58;0.63;;;;;;;;;;5012412;28;20042;-79
2022/03/07 14:09:55;;;;;;;3.97;0.98;;;;;;;;;;4996092;28;20034;-79
2022/03/07 14:12:39;;;;;;;3.28;0.52;;;;;;;;;;4960372;28;20042;-79
2022/03/07 14:15:07;;;;;;;3.08;0.95;;;;;;;;;;4992888;28;20129;-80
2022/03/07 14:17:33;;;;;;;3.10;0.57;;;;;;;;;;4976021;28;20042;-79
2022/03/07 14:19:59;;;;;;;3.97;0.90;;;;;;;;;;4975945;28;20045;-79
2022/03/07 14:22:25;;;;;;;2.55;0.60;;;;;;;;;;4960043;28;20034;-80
2022/03/07 14:24:51;;;;;;;2.17;0.70;;;;;;;;;;4959803;28;20034;-80
2022/03/07 14:27:16;;;;;;;2.28;0.57;;;;;;;;;;4976110;28;20034;-80
2022/03/07 14:29:43;;;;;;;1.92;0.60;;;;;;;;;;4959864;28;20145;-80
2022/03/07 14:32:10;;;;;;;2.80;0.52;;;;;;;;;;4992510;28;20150;-79
2022/03/07 14:34:35;;;;;;;4.05;0.70;;;;;;;;;;4979304;28;20049;-79
2022/03/07 14:37:01;;;;;;;2.13;0.70;;;;;;;;;;4991434;28;20419;-80
2022/03/07 14:39:27;;;;;;;1.38;0.55;;;;;;;;;;4976050;28;20397;-80
2022/03/07 14:41:53;;;;;;;3.05;0.73;;;;;;;;;;5008197;28;20042;-80